Time;durP1;ratioP1;P1;durP2;ratioP2;P2;SDS_P1;SDS_P2;PMS_P1;PMS_P2;Temp;Humidity;BMP_temperature;BMP_pressure;BME280_temperature;BME280_humidity;BME280_pressure;Samples;Min_cycle;Max_cycle;Signal;HPM_P1;HPM_P2
2023/01/17 00:01:09;;;;;;;4.77;4.37;;;;;;;;;;5115796;28;20656;-68
2023/01/17 00:11:50;;;;;;;5.23;4.73;;;;;;;;;;5116408;28;20580;-71
2023/01/17 00:14:17;;;;;;;5.33;4.80;;;;;;;;;;5116491;28;20196;-73
2023/01/17 00:16:43;;;;;;;5.60;5.10;;;;;;;;;;5117250;28;20168;-73
2023/01/17 01:33:47;;;;;;;4.30;3.13;;;;;;;;;;5118763;28;20215;-73
2023/01/17 01:36:13;;;;;;;8.10;5.27;;;;;;;;;;5118430;28;20177;-72
2023/01/17 01:38:39;;;;;;;9.27;5.17;;;;;;;;;;5116719;28;20644;-73
2023/01/17 01:41:05;;;;;;;8.87;5.83;;;;;;;;;;5117352;28;20656;-74
2023/01/17 01:43:57;;;;;;;11.27;6.30;;;;;;;;;;5117119;28;20257;-73
2023/01/17 01:46:25;;;;;;;13.10;6.20;;;;;;;;;;5115308;28;20188;-73
2023/01/17 01:48:55;;;;;;;6.57;5.90;;;;;;;;;;5117749;28;20168;-71
2023/01/17 01:51:24;;;;;;;7.27;5.93;;;;;;;;;;5116294;28;20429;-72
2023/01/17 01:53:52;;;;;;;7.63;4.60;;;;;;;;;;5117207;28;20236;-72
2023/01/17 01:56:19;;;;;;;5.10;4.37;;;;;;;;;;5115579;28;20176;-72
2023/01/17 01:58:47;;;;;;;5.73;4.10;;;;;;;;;;5117172;28;20449;-73
2023/01/17 02:01:14;;;;;;;5.37;3.53;;;;;;;;;;5117145;28;20296;-73
2023/01/17 02:03:40;;;;;;;4.60;3.60;;;;;;;;;;5117091;28;20193;-73
2023/01/17 02:06:24;;;;;;;3.20;3.00;;;;;;;;;;5117474;28;20418;-73
2023/01/17 02:08:50;;;;;;;4.70;3.50;;;;;;;;;;5119126;28;20184;-73
2023/01/17 02:11:16;;;;;;;4.27;2.87;;;;;;;;;;5116560;28;20177;-72
2023/01/17 02:13:42;;;;;;;3.63;2.10;;;;;;;;;;5117225;28;20200;-72
2023/01/17 02:16:16;;;;;;;1.60;1.50;;;;;;;;;;5117646;28;20757;-72
2023/01/17 02:18:48;;;;;;;1.70;1.60;;;;;;;;;;5123578;28;20425;-72
2023/01/17 02:21:17;;;;;;;2.07;1.90;;;;;;;;;;5125655;28;20442;-73
2023/01/17 02:24:02;;;;;;;2.37;2.17;;;;;;;;;;5125930;28;20200;-73
2023/01/17 02:26:34;;;;;;;2.30;2.10;;;;;;;;;;5121234;28;20414;-74
2023/01/17 02:29:18;;;;;;;2.00;1.90;;;;;;;;;;5116515;28;20398;-73
2023/01/17 02:31:56;;;;;;;2.40;2.00;;;;;;;;;;5119093;22;20995;-69
2023/01/17 02:34:32;;;;;;;2.47;2.27;;;;;;;;;;5097652;28;20920;-71
2023/01/17 02:37:04;;;;;;;2.83;2.10;;;;;;;;;;5097222;28;20427;-69
2023/01/17 02:39:39;;;;;;;3.43;2.27;;;;;;;;;;5097259;28;20417;-69
2023/01/17 02:42:15;;;;;;;3.73;2.50;;;;;;;;;;5096755;28;20473;-70
2023/01/17 02:44:42;;;;;;;3.47;3.17;;;;;;;;;;5096296;28;20896;-69
2023/01/17 02:47:20;;;;;;;2.73;2.50;;;;;;;;;;5095002;28;20416;-69
2023/01/17 02:49:46;;;;;;;2.97;2.17;;;;;;;;;;5103924;28;20411;-68
2023/01/17 02:52:12;;;;;;;2.73;2.30;;;;;;;;;;5096386;28;20480;-69
2023/01/17 02:54:51;;;;;;;2.70;2.50;;;;;;;;;;5096180;28;20187;-69
2023/01/17 02:57:29;;;;;;;2.67;1.97;;;;;;;;;;5096406;28;20189;-69
2023/01/17 02:59:55;;;;;;;2.20;1.70;;;;;;;;;;5096117;28;20415;-70
2023/01/17 03:02:21;;;;;;;2.00;1.80;;;;;;;;;;5094247;28;20542;-69
2023/01/17 03:04:50;;;;;;;2.20;1.80;;;;;;;;;;5096000;28;20173;-70
2023/01/17 03:07:19;;;;;;;2.70;2.13;;;;;;;;;;5095680;28;20248;-69
2023/01/17 03:09:46;;;;;;;5.20;2.40;;;;;;;;;;5094124;28;20943;-69
2023/01/17 03:12:12;;;;;;;3.23;2.20;;;;;;;;;;5095325;28;20435;-70
2023/01/17 03:14:38;;;;;;;2.50;2.30;;;;;;;;;;5095651;28;20411;-69
2023/01/17 03:17:05;;;;;;;2.47;2.27;;;;;;;;;;5094219;28;20418;-70
2023/01/17 03:19:31;;;;;;;3.20;2.17;;;;;;;;;;5095321;28;20185;-69
2023/01/17 03:21:57;;;;;;;3.30;2.50;;;;;;;;;;5094904;28;20546;-69
2023/01/17 03:24:23;;;;;;;2.50;2.30;;;;;;;;;;5093543;28;20786;-70
2023/01/17 03:26:49;;;;;;;5.30;2.50;;;;;;;;;;5095110;28;20251;-70
2023/01/17 03:29:15;;;;;;;5.30;2.87;;;;;;;;;;5095041;28;20235;-70
2023/01/17 03:31:41;;;;;;;3.57;3.27;;;;;;;;;;5094761;28;20209;-70
2023/01/17 03:34:07;;;;;;;2.80;2.50;;;;;;;;;;5093492;28;20423;-70
2023/01/17 03:36:33;;;;;;;8.93;2.80;;;;;;;;;;5093507;28;20422;-70
2023/01/17 03:38:59;;;;;;;3.17;2.87;;;;;;;;;;5095423;28;20173;-69
2023/01/17 03:41:25;;;;;;;3.27;2.97;;;;;;;;;;5095037;28;20994;-70
2023/01/17 03:43:51;;;;;;;4.97;3.60;;;;;;;;;;5094674;28;20230;-70
2023/01/17 03:46:19;;;;;;;3.63;3.33;;;;;;;;;;5094441;28;20650;-70
2023/01/17 03:48:45;;;;;;;4.43;3.90;;;;;;;;;;5094653;28;20586;-70
2023/01/17 03:51:11;;;;;;;4.13;3.70;;;;;;;;;;5092915;28;20936;-70
2023/01/17 03:53:37;;;;;;;4.43;3.97;;;;;;;;;;5092573;28;20173;-70
2023/01/17 03:56:03;;;;;;;5.43;4.20;;;;;;;;;;5094312;28;20230;-70
2023/01/17 03:58:29;;;;;;;8.07;4.40;;;;;;;;;;5092919;28;20184;-70
2023/01/17 04:00:55;;;;;;;5.80;4.20;;;;;;;;;;5092746;28;20200;-71
2023/01/17 04:03:21;;;;;;;5.03;4.50;;;;;;;;;;5094460;28;20185;-72
2023/01/17 04:05:47;;;;;;;7.10;4.40;;;;;;;;;;5094656;28;20177;-70
2023/01/17 04:08:13;;;;;;;5.83;4.60;;;;;;;;;;5095059;28;20917;-70
2023/01/17 04:10:39;;;;;;;7.10;5.27;;;;;;;;;;5093224;28;20443;-70
2023/01/17 04:13:05;;;;;;;7.33;5.50;;;;;;;;;;5092824;28;20181;-70
2023/01/17 04:15:32;;;;;;;5.70;5.07;;;;;;;;;;5092939;28;20283;-71
2023/01/17 04:17:58;;;;;;;8.43;5.53;;;;;;;;;;5094434;28;20635;-71
2023/01/17 04:20:29;;;;;;;6.53;5.30;;;;;;;;;;5094549;28;20438;-69
2023/01/17 04:22:56;;;;;;;7.57;5.00;;;;;;;;;;5092564;28;20986;-69
2023/01/17 04:25:22;;;;;;;10.40;5.27;;;;;;;;;;5094069;28;20849;-70
2023/01/17 04:27:48;;;;;;;5.43;4.37;;;;;;;;;;5094142;28;20407;-69
2023/01/17 04:30:14;;;;;;;7.10;4.73;;;;;;;;;;5094742;28;20216;-69
2023/01/17 04:32:40;;;;;;;6.20;3.77;;;;;;;;;;5094801;28;20249;-70
2023/01/17 04:35:08;;;;;;;8.03;4.07;;;;;;;;;;5092674;28;20177;-70
2023/01/17 04:37:34;;;;;;;9.13;4.60;;;;;;;;;;5093850;28;20613;-69
2023/01/17 04:40:00;;;;;;;4.10;3.70;;;;;;;;;;5093933;28;20450;-70
2023/01/17 04:42:25;;;;;;;5.40;3.83;;;;;;;;;;5092743;28;20201;-69
2023/01/17 04:44:51;;;;;;;6.87;4.40;;;;;;;;;;5094983;28;20170;-69
2023/01/17 04:47:17;;;;;;;6.50;3.87;;;;;;;;;;5093359;28;20647;-70
2023/01/17 04:49:43;;;;;;;8.80;4.50;;;;;;;;;;5095364;28;20516;-69
2023/01/17 04:52:09;;;;;;;5.20;4.00;;;;;;;;;;5094560;28;20670;-69
2023/01/17 04:54:35;;;;;;;6.23;4.03;;;;;;;;;;5094692;28;20169;-70
2023/01/17 04:57:01;;;;;;;9.37;4.20;;;;;;;;;;5093999;28;20710;-70
2023/01/17 04:59:27;;;;;;;5.63;4.20;;;;;;;;;;5093855;28;20177;-70
2023/01/17 05:01:53;;;;;;;8.60;4.30;;;;;;;;;;5093455;28;20655;-70
2023/01/17 05:04:19;;;;;;;8.33;4.17;;;;;;;;;;5093639;28;20407;-69
2023/01/17 05:06:45;;;;;;;8.67;4.63;;;;;;;;;;5095159;28;20201;-69
2023/01/17 05:09:11;;;;;;;8.67;4.70;;;;;;;;;;5095919;28;20260;-70
2023/01/17 05:11:37;;;;;;;7.57;5.20;;;;;;;;;;5097307;28;20515;-70
2023/01/17 05:14:03;;;;;;;8.50;5.00;;;;;;;;;;5097190;28;20207;-70
2023/01/17 05:16:29;;;;;;;8.83;5.00;;;;;;;;;;5097573;28;20247;-71
2023/01/17 05:18:55;;;;;;;7.43;5.83;;;;;;;;;;5098554;28;20315;-70
2023/01/17 05:21:21;;;;;;;9.33;6.20;;;;;;;;;;5097064;28;20258;-70
2023/01/17 05:23:47;;;;;;;14.33;6.50;;;;;;;;;;5097554;28;20173;-70
2023/01/17 05:26:13;;;;;;;9.60;6.20;;;;;;;;;;5096048;28;20806;-70
2023/01/17 05:28:39;;;;;;;9.37;6.30;;;;;;;;;;5096053;28;20216;-70
2023/01/17 05:31:05;;;;;;;12.43;6.10;;;;;;;;;;5095645;28;20220;-70
2023/01/17 05:33:31;;;;;;;9.47;6.60;;;;;;;;;;5096018;28;20822;-70
2023/01/17 05:35:57;;;;;;;9.03;6.93;;;;;;;;;;5096027;28;20809;-70
2023/01/17 05:38:23;;;;;;;11.53;7.00;;;;;;;;;;5095996;28;20480;-68
2023/01/17 05:40:50;;;;;;;9.77;6.90;;;;;;;;;;5097206;28;20521;-70
2023/01/17 05:43:15;;;;;;;13.57;7.07;;;;;;;;;;5097190;28;20462;-70
2023/01/17 05:45:41;;;;;;;11.10;7.20;;;;;;;;;;5097009;28;20411;-70
2023/01/17 05:48:08;;;;;;;11.50;8.20;;;;;;;;;;5097058;28;20178;-70
2023/01/17 05:50:36;;;;;;;11.30;8.03;;;;;;;;;;5096909;28;20674;-70
2023/01/17 05:53:03;;;;;;;10.57;7.67;;;;;;;;;;5096054;28;20411;-70
2023/01/17 05:55:30;;;;;;;18.20;8.70;;;;;;;;;;5096981;28;20411;-70
2023/01/17 05:57:56;;;;;;;16.60;9.57;;;;;;;;;;5095858;28;20429;-70
2023/01/17 06:00:23;;;;;;;15.93;9.73;;;;;;;;;;5096893;28;20431;-69
2023/01/17 06:02:49;;;;;;;16.33;10.03;;;;;;;;;;5097094;28;20968;-69
2023/01/17 06:05:15;;;;;;;13.27;9.83;;;;;;;;;;5095633;28;20517;-68
2023/01/17 06:07:45;;;;;;;15.60;11.70;;;;;;;;;;5098047;28;20457;-68
2023/01/17 06:10:13;;;;;;;15.37;10.53;;;;;;;;;;5095555;28;20415;-69
2023/01/17 06:12:39;;;;;;;13.50;11.07;;;;;;;;;;5096494;28;20912;-70
2023/01/17 06:15:05;;;;;;;18.43;11.93;;;;;;;;;;5096992;28;20498;-70
2023/01/17 06:17:31;;;;;;;15.17;12.53;;;;;;;;;;5096285;28;20181;-70
2023/01/17 06:19:57;;;;;;;18.17;13.10;;;;;;;;;;5095119;28;20449;-70
2023/01/17 06:22:23;;;;;;;17.57;13.00;;;;;;;;;;5096772;28;20208;-70
2023/01/17 06:24:49;;;;;;;19.13;13.67;;;;;;;;;;5097058;28;20757;-72
2023/01/17 06:27:15;;;;;;;19.83;14.43;;;;;;;;;;5096891;28;20657;-70
2023/01/17 06:29:41;;;;;;;21.43;13.53;;;;;;;;;;5096164;28;20174;-70
2023/01/17 06:32:07;;;;;;;20.00;13.50;;;;;;;;;;5094952;28;20251;-70
2023/01/17 06:34:33;;;;;;;23.00;13.23;;;;;;;;;;5096372;28;20188;-72
2023/01/17 06:36:59;;;;;;;18.87;13.23;;;;;;;;;;5094705;28;20185;-73
2023/01/17 06:39:25;;;;;;;16.27;13.17;;;;;;;;;;5097319;28;20563;-71
2023/01/17 06:41:51;;;;;;;19.23;13.80;;;;;;;;;;5097098;28;20466;-69
2023/01/17 06:44:17;;;;;;;19.23;13.20;;;;;;;;;;5095582;28;20279;-72
2023/01/17 06:46:43;;;;;;;17.80;14.90;;;;;;;;;;5096260;28;20427;-68
2023/01/17 06:49:09;;;;;;;20.53;15.87;;;;;;;;;;5096248;28;20639;-71
2023/01/17 06:51:35;;;;;;;25.97;16.57;;;;;;;;;;5095948;28;20435;-72
2023/01/17 06:54:01;;;;;;;29.00;17.50;;;;;;;;;;5096431;28;20416;-71
2023/01/17 06:56:30;;;;;;;23.83;18.07;;;;;;;;;;5097251;28;20181;-69
2023/01/17 06:58:55;;;;;;;29.13;18.33;;;;;;;;;;5099208;28;20185;-69
2023/01/17 07:01:21;;;;;;;27.87;18.70;;;;;;;;;;5096088;28;20546;-69
2023/01/17 07:03:47;;;;;;;26.90;19.90;;;;;;;;;;5094798;28;20185;-70
2023/01/17 07:06:13;;;;;;;25.10;19.27;;;;;;;;;;5094364;28;20173;-69
2023/01/17 07:08:39;;;;;;;28.00;20.57;;;;;;;;;;5094599;28;20606;-69
2023/01/17 07:11:09;;;;;;;27.17;20.40;;;;;;;;;;5095715;28;20422;-69
2023/01/17 07:13:36;;;;;;;27.10;20.23;;;;;;;;;;5095909;28;20499;-69
2023/01/17 07:16:03;;;;;;;31.53;20.90;;;;;;;;;;5095669;28;20876;-69
2023/01/17 07:18:29;;;;;;;31.33;20.90;;;;;;;;;;5095802;28;20441;-69
2023/01/17 07:20:55;;;;;;;27.07;20.67;;;;;;;;;;5095279;28;20427;-71
2023/01/17 07:23:22;;;;;;;27.80;19.63;;;;;;;;;;5095520;28;20948;-71
2023/01/17 07:25:51;;;;;;;28.60;20.87;;;;;;;;;;5095581;28;20176;-69
2023/01/17 07:28:17;;;;;;;29.37;21.40;;;;;;;;;;5094751;28;20413;-70
2023/01/17 07:30:43;;;;;;;25.90;18.83;;;;;;;;;;5094768;28;20434;-69
2023/01/17 07:33:09;;;;;;;27.90;19.67;;;;;;;;;;5095371;28;20158;-68
2023/01/17 07:35:36;;;;;;;29.27;20.17;;;;;;;;;;5095116;28;20173;-71
2023/01/17 07:38:04;;;;;;;24.77;18.37;;;;;;;;;;5093908;28;20958;-70
2023/01/17 07:40:30;;;;;;;25.10;18.37;;;;;;;;;;5095079;28;20450;-71
2023/01/17 07:43:11;;;;;;;30.53;18.83;;;;;;;;;;5094985;28;20454;-71
2023/01/17 07:45:39;;;;;;;28.43;17.57;;;;;;;;;;5093486;28;20419;-71
2023/01/17 07:48:05;;;;;;;26.40;19.33;;;;;;;;;;5096589;28;20900;-69
2023/01/17 07:50:31;;;;;;;22.33;18.43;;;;;;;;;;5094448;28;20419;-71
2023/01/17 07:52:57;;;;;;;28.00;19.50;;;;;;;;;;5095842;28;20177;-71
2023/01/17 07:55:23;;;;;;;27.07;18.40;;;;;;;;;;5093826;28;20557;-71
2023/01/17 07:57:49;;;;;;;27.27;16.97;;;;;;;;;;5093695;28;20185;-72
2023/01/17 08:00:16;;;;;;;26.83;17.03;;;;;;;;;;5094620;28;20177;-71
2023/01/17 08:02:41;;;;;;;27.67;17.03;;;;;;;;;;5094506;28;20460;-70
2023/01/17 08:05:08;;;;;;;26.73;17.80;;;;;;;;;;5093727;28;20427;-72
2023/01/17 08:07:34;;;;;;;27.30;18.93;;;;;;;;;;5095028;28;20173;-71
2023/01/17 08:10:00;;;;;;;24.03;17.67;;;;;;;;;;5094705;28;20494;-70
2023/01/17 08:12:28;;;;;;;24.53;17.43;;;;;;;;;;5095511;28;20435;-71
2023/01/17 08:14:54;;;;;;;21.73;16.97;;;;;;;;;;5094295;28;20803;-70
2023/01/17 08:17:20;;;;;;;28.33;19.20;;;;;;;;;;5094956;28;20422;-71
2023/01/17 08:19:50;;;;;;;25.93;18.90;;;;;;;;;;5095337;28;20618;-71
2023/01/17 08:22:15;;;;;;;24.30;17.80;;;;;;;;;;5093842;28;20461;-69
2023/01/17 08:24:42;;;;;;;28.63;18.90;;;;;;;;;;5093668;28;20415;-69
2023/01/17 08:27:07;;;;;;;25.87;19.30;;;;;;;;;;5094940;28;20176;-69
2023/01/17 08:29:34;;;;;;;28.17;18.37;;;;;;;;;;5093512;28;20411;-70
2023/01/17 08:32:00;;;;;;;30.30;19.07;;;;;;;;;;5095316;28;20306;-72
2023/01/17 08:34:26;;;;;;;26.77;19.97;;;;;;;;;;5096633;28;20419;-71
2023/01/17 08:36:52;;;;;;;29.53;18.90;;;;;;;;;;5099977;28;20189;-72
2023/01/17 08:39:18;;;;;;;31.77;19.47;;;;;;;;;;5095824;28;20170;-70
2023/01/17 08:41:45;;;;;;;29.37;20.10;;;;;;;;;;5098462;28;20465;-71
2023/01/17 08:44:14;;;;;;;28.43;20.10;;;;;;;;;;5105498;28;20445;-70
2023/01/17 08:46:40;;;;;;;28.63;21.17;;;;;;;;;;5110275;28;20783;-71
2023/01/17 08:49:08;;;;;;;26.10;20.27;;;;;;;;;;5110700;28;20411;-71
2023/01/17 08:51:34;;;;;;;30.77;20.83;;;;;;;;;;5102623;28;20442;-73
2023/01/17 08:54:00;;;;;;;30.27;20.67;;;;;;;;;;5099404;28;20435;-71
2023/01/17 08:56:26;;;;;;;36.57;20.33;;;;;;;;;;5099755;28;20769;-71
2023/01/17 08:58:52;;;;;;;28.97;20.00;;;;;;;;;;5098126;28;20185;-71
2023/01/17 09:01:18;;;;;;;28.73;19.90;;;;;;;;;;5098534;28;20435;-73
2023/01/17 09:03:44;;;;;;;26.20;18.80;;;;;;;;;;5098655;28;20407;-70
2023/01/17 09:06:14;;;;;;;29.63;18.37;;;;;;;;;;5099368;28;20407;-71
2023/01/17 09:08:40;;;;;;;31.13;19.33;;;;;;;;;;5107925;28;20399;-71
2023/01/17 09:11:07;;;;;;;30.20;18.73;;;;;;;;;;5105452;28;20430;-72
2023/01/17 09:13:33;;;;;;;31.37;19.43;;;;;;;;;;5108684;28;20422;-71
2023/01/17 09:15:59;;;;;;;25.47;18.83;;;;;;;;;;5104355;28;20419;-71
2023/01/17 09:18:26;;;;;;;30.57;18.70;;;;;;;;;;5105469;28;20177;-71
2023/01/17 09:20:53;;;;;;;24.57;17.93;;;;;;;;;;5103381;28;20438;-71
2023/01/17 09:23:20;;;;;;;26.57;19.77;;;;;;;;;;5104958;28;20446;-71
2023/01/17 09:25:51;;;;;;;33.10;19.20;;;;;;;;;;5107197;28;20414;-71
2023/01/17 09:28:17;;;;;;;28.77;17.10;;;;;;;;;;5102723;28;20388;-71
2023/01/17 09:30:43;;;;;;;25.30;18.40;;;;;;;;;;5097457;28;20446;-71
2023/01/17 09:33:09;;;;;;;28.33;20.47;;;;;;;;;;5096450;28;20173;-71
2023/01/17 09:35:35;;;;;;;25.03;17.73;;;;;;;;;;5097586;28;20178;-70
2023/01/17 09:38:01;;;;;;;27.70;18.10;;;;;;;;;;5096226;28;20746;-71
2023/01/17 09:40:27;;;;;;;30.47;21.13;;;;;;;;;;5096137;28;20225;-71
2023/01/17 09:42:56;;;;;;;28.90;17.83;;;;;;;;;;5097797;28;20208;-71
2023/01/17 09:45:31;;;;;;;26.87;16.73;;;;;;;;;;5097128;28;20165;-71
2023/01/17 09:47:58;;;;;;;36.23;16.97;;;;;;;;;;5095498;28;20447;-71
2023/01/17 09:50:32;;;;;;;26.73;17.07;;;;;;;;;;5096002;28;20901;-71
2023/01/17 09:53:00;;;;;;;25.07;15.80;;;;;;;;;;5095225;28;20423;-70
2023/01/17 09:55:28;;;;;;;26.67;15.17;;;;;;;;;;5096994;28;20552;-71
2023/01/17 09:57:57;;;;;;;26.93;18.17;;;;;;;;;;5096870;28;20924;-71
2023/01/17 10:00:32;;;;;;;25.90;16.20;;;;;;;;;;5097066;28;20418;-71
2023/01/17 10:03:16;;;;;;;22.37;15.60;;;;;;;;;;5097710;28;20786;-71
2023/01/17 10:05:53;;;;;;;25.53;16.63;;;;;;;;;;5097874;28;20407;-71
2023/01/17 10:08:51;;;;;;;24.70;15.23;;;;;;;;;;5098062;28;20744;-71
2023/01/17 10:11:55;;;;;;;22.00;15.20;;;;;;;;;;5064109;28;20509;-71
2023/01/17 10:14:48;;;;;;;237.40;161.23;;;;;;;;;;5036233;28;20414;-70
2023/01/17 10:17:15;;;;;;;37.63;28.83;;;;;;;;;;5033850;28;20437;-70
2023/01/17 10:19:46;;;;;;;34.17;19.90;;;;;;;;;;5069298;28;20411;-70
2023/01/17 10:22:29;;;;;;;23.40;15.73;;;;;;;;;;5096527;28;20205;-70
2023/01/17 10:24:55;;;;;;;23.77;14.37;;;;;;;;;;5094955;28;20842;-70
2023/01/17 10:27:25;;;;;;;25.17;13.90;;;;;;;;;;5094946;28;20438;-70
2023/01/17 10:29:51;;;;;;;22.33;14.37;;;;;;;;;;5094770;28;20646;-70
2023/01/17 10:32:18;;;;;;;21.40;13.97;;;;;;;;;;5096160;28;20261;-70
2023/01/17 10:34:51;;;;;;;24.67;15.70;;;;;;;;;;5096707;28;20226;-70
2023/01/17 10:37:20;;;;;;;20.87;13.37;;;;;;;;;;5095800;28;20840;-70
2023/01/17 10:39:47;;;;;;;20.33;13.80;;;;;;;;;;5095360;28;20272;-71
2023/01/17 10:42:21;;;;;;;23.83;14.27;;;;;;;;;;5096395;28;20209;-70
2023/01/17 10:44:52;;;;;;;40.17;25.03;;;;;;;;;;5096652;28;20161;-71
2023/01/17 10:47:23;;;;;;;20.13;12.50;;;;;;;;;;5096714;28;20896;-70
2023/01/17 10:49:53;;;;;;;33.93;21.33;;;;;;;;;;5096275;28;20408;-70
2023/01/17 10:52:19;;;;;;;18.30;12.70;;;;;;;;;;5096568;28;20506;-68
2023/01/17 10:54:50;;;;;;;34.47;23.07;;;;;;;;;;5096325;28;20435;-69
2023/01/17 10:57:19;;;;;;;21.20;12.97;;;;;;;;;;5095119;28;20174;-69
2023/01/17 10:59:45;;;;;;;18.10;12.43;;;;;;;;;;5094670;28;20192;-71
2023/01/17 11:02:18;;;;;;;20.33;13.63;;;;;;;;;;5095491;28;20463;-71
2023/01/17 11:04:47;;;;;;;19.43;12.13;;;;;;;;;;5097364;28;20458;-71
2023/01/17 11:07:13;;;;;;;29.57;13.57;;;;;;;;;;5095613;28;20181;-69
2023/01/17 11:09:41;;;;;;;18.37;12.10;;;;;;;;;;5096838;28;20416;-73
2023/01/17 11:12:15;;;;;;;18.73;12.20;;;;;;;;;;5096839;28;20224;-71
2023/01/17 11:14:49;;;;;;;21.03;12.20;;;;;;;;;;5095053;28;20176;-71
2023/01/17 11:17:18;;;;;;;25.40;11.13;;;;;;;;;;5096971;28;20630;-71
2023/01/17 11:19:50;;;;;;;16.00;10.70;;;;;;;;;;5095906;28;20642;-71
2023/01/17 11:22:16;;;;;;;14.43;10.50;;;;;;;;;;5095774;28;20233;-71
2023/01/17 11:24:48;;;;;;;11.60;8.20;;;;;;;;;;5094109;28;20653;-69
2023/01/17 11:27:28;;;;;;;15.90;8.10;;;;;;;;;;5095841;28;20692;-69
2023/01/17 11:30:03;;;;;;;18.33;8.17;;;;;;;;;;5095729;28;20662;-70
2023/01/17 11:32:30;;;;;;;12.50;7.43;;;;;;;;;;5095339;28;20270;-69
2023/01/17 11:35:14;;;;;;;10.07;8.07;;;;;;;;;;5095643;28;20553;-69
2023/01/17 11:37:47;;;;;;;14.87;8.73;;;;;;;;;;5095870;28;20180;-69
2023/01/17 11:40:25;;;;;;;12.57;7.50;;;;;;;;;;5094149;28;20247;-69
2023/01/17 11:42:59;;;;;;;15.87;7.87;;;;;;;;;;5093820;28;20201;-69
2023/01/17 11:45:29;;;;;;;11.87;7.40;;;;;;;;;;5095248;28;20173;-71
2023/01/17 11:48:04;;;;;;;13.43;6.83;;;;;;;;;;5094128;28;20242;-71
2023/01/17 11:50:30;;;;;;;8.87;6.03;;;;;;;;;;5095321;28;20202;-69
2023/01/17 11:53:05;;;;;;;13.47;7.00;;;;;;;;;;5095453;28;20184;-71
2023/01/17 11:55:31;;;;;;;10.57;6.00;;;;;;;;;;5096170;28;20173;-71
2023/01/17 11:57:56;;;;;;;13.53;6.80;;;;;;;;;;5094719;28;20184;-71
2023/01/17 12:00:31;;;;;;;14.07;6.77;;;;;;;;;;5094573;28;20574;-72
2023/01/17 12:03:14;;;;;;;13.53;7.23;;;;;;;;;;5094520;28;20200;-71
2023/01/17 12:05:52;;;;;;;14.10;6.73;;;;;;;;;;5094468;28;20631;-71
2023/01/17 12:08:43;;;;;;;14.20;6.97;;;;;;;;;;5094827;28;20165;-71
2023/01/17 12:11:20;;;;;;;12.50;6.83;;;;;;;;;;5094744;28;20193;-71
2023/01/17 12:14:01;;;;;;;17.57;7.13;;;;;;;;;;5095286;28;20160;-71
2023/01/17 12:16:37;;;;;;;14.27;6.30;;;;;;;;;;5093825;28;20177;-71
2023/01/17 12:19:18;;;;;;;13.93;6.17;;;;;;;;;;5094632;28;20177;-71
2023/01/17 12:21:50;;;;;;;17.40;6.93;;;;;;;;;;5093952;28;20213;-71
2023/01/17 12:24:16;;;;;;;21.63;6.50;;;;;;;;;;5094225;28;20653;-72
2023/01/17 12:26:43;;;;;;;10.37;5.90;;;;;;;;;;5094239;28;20181;-71
2023/01/17 12:29:18;;;;;;;10.23;5.90;;;;;;;;;;5093967;28;20177;-71
2023/01/17 12:32:04;;;;;;;13.10;6.30;;;;;;;;;;5092523;28;20212;-71
2023/01/17 12:34:39;;;;;;;19.23;6.17;;;;;;;;;;5092567;28;20188;-72
2023/01/17 12:37:09;;;;;;;11.20;6.80;;;;;;;;;;5093636;28;20189;-71
2023/01/17 12:39:37;;;;;;;12.53;5.83;;;;;;;;;;5093595;28;20192;-71
2023/01/17 12:42:42;;;;;;;12.47;5.90;;;;;;;;;;5092282;28;20231;-71
2023/01/17 12:45:11;;;;;;;8.17;5.00;;;;;;;;;;5031866;28;20193;-71
2023/01/17 12:47:41;;;;;;;14.97;5.20;;;;;;;;;;5031312;28;20183;-72
2023/01/17 12:50:22;;;;;;;10.40;5.23;;;;;;;;;;5053831;28;20258;-73
2023/01/17 12:52:48;;;;;;;12.00;5.13;;;;;;;;;;5093960;28;20184;-71
2023/01/17 12:55:33;;;;;;;12.00;5.43;;;;;;;;;;5092211;28;20173;-71
2023/01/17 12:58:00;;;;;;;11.57;5.80;;;;;;;;;;5094640;28;20195;-71
2023/01/17 13:00:28;;;;;;;10.90;5.27;;;;;;;;;;5093868;28;20332;-71
2023/01/17 13:02:54;;;;;;;14.97;5.67;;;;;;;;;;5092009;28;20251;-71
2023/01/17 13:05:25;;;;;;;15.07;7.30;;;;;;;;;;5093681;28;20177;-72
2023/01/17 13:08:00;;;;;;;22.93;13.13;;;;;;;;;;5094066;28;20181;-72
2023/01/17 13:10:38;;;;;;;11.77;5.50;;;;;;;;;;5093409;28;20204;-71
2023/01/17 13:13:18;;;;;;;9.77;4.93;;;;;;;;;;5093427;28;20646;-71
2023/01/17 13:15:44;;;;;;;14.67;6.23;;;;;;;;;;5093491;28;20157;-71
2023/01/17 13:18:15;;;;;;;9.53;4.90;;;;;;;;;;5093704;28;20268;-71
2023/01/17 13:20:55;;;;;;;10.57;6.90;;;;;;;;;;5094005;28;20273;-71
2023/01/17 13:23:21;;;;;;;9.00;4.90;;;;;;;;;;5093969;28;20279;-71
2023/01/17 13:25:49;;;;;;;8.90;5.60;;;;;;;;;;5093519;28;20591;-71
2023/01/17 13:28:26;;;;;;;11.17;6.07;;;;;;;;;;5094560;28;20642;-71
2023/01/17 13:31:12;;;;;;;16.73;6.43;;;;;;;;;;5096965;28;20208;-71
2023/01/17 13:33:57;;;;;;;10.53;6.27;;;;;;;;;;5097518;28;20181;-71
2023/01/17 13:36:28;;;;;;;10.47;5.73;;;;;;;;;;5097284;28;20260;-71
2023/01/17 13:39:07;;;;;;;9.83;5.37;;;;;;;;;;5097313;28;20259;-71
2023/01/17 13:41:50;;;;;;;11.00;5.00;;;;;;;;;;5096843;28;20197;-71
2023/01/17 13:44:23;;;;;;;15.43;7.27;;;;;;;;;;5097007;28;20196;-71
2023/01/17 13:47:12;;;;;;;16.13;5.60;;;;;;;;;;5095501;28;20701;-71
2023/01/17 13:49:38;;;;;;;9.83;5.90;;;;;;;;;;5068268;28;20182;-71
2023/01/17 13:52:19;;;;;;;17.70;5.63;;;;;;;;;;5097244;28;20295;-70
2023/01/17 13:54:46;;;;;;;17.23;7.40;;;;;;;;;;5097142;28;20181;-70
2023/01/17 13:57:28;;;;;;;14.47;6.50;;;;;;;;;;5097106;28;20181;-72
2023/01/17 13:59:58;;;;;;;9.97;6.00;;;;;;;;;;5097163;28;20490;-70
2023/01/17 14:02:35;;;;;;;11.90;5.60;;;;;;;;;;5096333;28;20251;-70
2023/01/17 14:05:09;;;;;;;11.73;6.43;;;;;;;;;;5096615;28;20188;-70
2023/01/17 14:07:38;;;;;;;9.03;4.80;;;;;;;;;;5096514;28;20252;-70
2023/01/17 14:10:23;;;;;;;11.97;5.63;;;;;;;;;;5095802;28;20181;-70
2023/01/17 14:12:49;;;;;;;14.70;5.40;;;;;;;;;;5097711;28;20177;-70
2023/01/17 14:15:20;;;;;;;15.57;5.93;;;;;;;;;;5096923;28;20596;-70
2023/01/17 14:17:49;;;;;;;11.23;5.47;;;;;;;;;;5096718;28;20177;-70
2023/01/17 14:20:16;;;;;;;9.93;5.30;;;;;;;;;;5095133;28;20185;-70
2023/01/17 14:22:47;;;;;;;12.80;5.60;;;;;;;;;;5098006;28;20566;-70
2023/01/17 14:25:13;;;;;;;10.13;5.27;;;;;;;;;;5096683;28;20161;-70
2023/01/17 14:27:45;;;;;;;11.33;4.80;;;;;;;;;;5096236;28;20173;-72
2023/01/17 14:30:16;;;;;;;16.83;4.90;;;;;;;;;;5096182;28;20260;-70
2023/01/17 14:33:09;;;;;;;9.07;4.60;;;;;;;;;;5094730;28;20189;-71
2023/01/17 14:35:36;;;;;;;10.70;4.90;;;;;;;;;;5084154;28;20196;-71
2023/01/17 14:38:04;;;;;;;9.57;4.77;;;;;;;;;;5095260;28;20203;-71
2023/01/17 14:40:34;;;;;;;9.17;5.03;;;;;;;;;;5096134;28;20604;-71
2023/01/17 14:43:01;;;;;;;8.83;4.57;;;;;;;;;;5095271;28;20240;-71
2023/01/17 14:45:28;;;;;;;8.67;4.53;;;;;;;;;;5094101;28;20174;-71
2023/01/17 14:47:56;;;;;;;12.80;4.77;;;;;;;;;;5093863;28;20268;-71
2023/01/17 14:50:29;;;;;;;10.00;4.37;;;;;;;;;;5093880;28;20183;-71
2023/01/17 14:53:07;;;;;;;16.30;10.73;;;;;;;;;;5094087;28;20256;-71
2023/01/17 14:55:33;;;;;;;9.60;5.93;;;;;;;;;;5094272;28;20613;-71
2023/01/17 14:57:59;;;;;;;13.30;5.37;;;;;;;;;;5095355;28;20173;-70
2023/01/17 15:00:28;;;;;;;12.90;7.80;;;;;;;;;;5094980;28;20177;-70
2023/01/17 15:02:54;;;;;;;18.50;6.93;;;;;;;;;;5093556;28;20239;-69
2023/01/17 15:05:22;;;;;;;16.13;7.13;;;;;;;;;;5095256;28;20177;-70
2023/01/17 15:07:51;;;;;;;9.80;6.63;;;;;;;;;;5093916;28;20595;-71
2023/01/17 15:10:19;;;;;;;11.57;6.20;;;;;;;;;;5095247;28;20180;-71
2023/01/17 15:12:48;;;;;;;11.93;6.30;;;;;;;;;;5096719;28;20173;-71
2023/01/17 15:15:31;;;;;;;11.77;6.03;;;;;;;;;;5095050;28;20184;-71
2023/01/17 15:18:16;;;;;;;16.57;6.83;;;;;;;;;;5095453;28;20202;-71
2023/01/17 15:20:44;;;;;;;17.10;7.83;;;;;;;;;;5115914;22;20642;-72
2023/01/17 15:23:18;;;;;;;18.70;8.93;;;;;;;;;;5117098;28;20597;-71
2023/01/17 15:25:46;;;;;;;14.80;7.53;;;;;;;;;;5116286;28;20177;-73
2023/01/17 15:28:13;;;;;;;12.87;7.43;;;;;;;;;;5115774;28;20173;-73
2023/01/17 15:30:59;;;;;;;15.37;8.47;;;;;;;;;;5115713;28;20203;-74
2023/01/17 15:33:25;;;;;;;18.70;12.13;;;;;;;;;;5117144;28;20168;-74
2023/01/17 15:35:58;;;;;;;17.80;13.00;;;;;;;;;;5115451;28;20176;-72
2023/01/17 15:38:25;;;;;;;19.63;11.27;;;;;;;;;;5115600;28;20626;-71
2023/01/17 15:40:51;;;;;;;14.77;9.13;;;;;;;;;;5115481;28;20203;-72
2023/01/17 15:43:19;;;;;;;12.20;7.83;;;;;;;;;;5116927;28;20287;-72
2023/01/17 15:45:54;;;;;;;12.33;8.33;;;;;;;;;;5117449;28;20179;-73
2023/01/17 15:48:30;;;;;;;14.13;8.37;;;;;;;;;;5115206;28;20172;-73
2023/01/17 15:50:59;;;;;;;18.13;9.90;;;;;;;;;;5115677;28;20255;-71
2023/01/17 15:53:32;;;;;;;12.97;8.43;;;;;;;;;;5118484;28;20176;-73
2023/01/17 15:55:58;;;;;;;13.23;9.20;;;;;;;;;;5115166;28;20204;-73
2023/01/17 15:58:26;;;;;;;17.50;9.53;;;;;;;;;;5116420;28;20203;-73
2023/01/17 16:00:52;;;;;;;20.23;10.97;;;;;;;;;;5114633;28;20211;-73
2023/01/17 16:03:26;;;;;;;12.97;9.53;;;;;;;;;;5116111;28;20204;-72
2023/01/17 16:05:55;;;;;;;13.70;8.73;;;;;;;;;;5116149;28;20177;-72